sensor_id;sensor_type;location;lat;lon;timestamp;P1;durP1;ratioP1;P2;durP2;ratioP2
18455;SDS011;9357;49.900;8.208;2024-03-06T00:00:10;2.88;;;2.58;;
18455;SDS011;9357;49.900;8.208;2024-03-06T00:01:43;3.42;;;2.53;;
18455;SDS011;9357;49.900;8.208;2024-03-06T00:03:15;2.80;;;2.60;;
18455;SDS011;9357;49.900;8.208;2024-03-06T00:04:48;3.97;;;2.65;;
18455;SDS011;9357;49.900;8.208;2024-03-06T00:06:20;4.13;;;2.80;;
18455;SDS011;9357;49.900;8.208;2024-03-06T00:07:53;4.97;;;2.47;;
18455;SDS011;9357;49.900;8.208;2024-03-06T00:09:25;3.10;;;2.80;;
18455;SDS011;9357;49.900;8.208;2024-03-06T00:10:59;4.13;;;2.67;;
18455;SDS011;9357;49.900;8.208;2024-03-06T00:12:31;2.92;;;2.53;;
18455;SDS011;9357;49.900;8.208;2024-03-06T00:14:05;3.25;;;2.47;;
18455;SDS011;9357;49.900;8.208;2024-03-06T00:15:37;3.15;;;2.20;;
18455;SDS011;9357;49.900;8.208;2024-03-06T00:17:10;4.47;;;2.90;;
18455;SDS011;9357;49.900;8.208;2024-03-06T00:18:42;4.75;;;2.63;;
18455;SDS011;9357;49.900;8.208;2024-03-06T00:20:15;2.65;;;2.45;;
18455;SDS011;9357;49.900;8.208;2024-03-06T00:21:47;2.97;;;2.63;;
18455;SDS011;9357;49.900;8.208;2024-03-06T00:23:20;4.05;;;2.58;;
18455;SDS011;9357;49.900;8.208;2024-03-06T00:24:52;3.10;;;2.60;;
18455;SDS011;9357;49.900;8.208;2024-03-06T00:26:25;5.47;;;2.72;;
18455;SDS011;9357;49.900;8.208;2024-03-06T00:27:57;4.38;;;2.70;;
18455;SDS011;9357;49.900;8.208;2024-03-06T00:29:31;3.13;;;2.40;;
18455;SDS011;9357;49.900;8.208;2024-03-06T00:31:04;3.33;;;2.75;;
18455;SDS011;9357;49.900;8.208;2024-03-06T00:32:37;4.28;;;2.75;;
18455;SDS011;9357;49.900;8.208;2024-03-06T00:34:09;2.78;;;2.50;;
18455;SDS011;9357;49.900;8.208;2024-03-06T00:35:42;4.28;;;2.63;;
18455;SDS011;9357;49.900;8.208;2024-03-06T00:37:15;2.97;;;2.67;;
18455;SDS011;9357;49.900;8.208;2024-03-06T00:38:48;5.28;;;3.03;;
18455;SDS011;9357;49.900;8.208;2024-03-06T00:40:19;3.03;;;2.72;;
18455;SDS011;9357;49.900;8.208;2024-03-06T00:41:52;3.58;;;2.60;;
18455;SDS011;9357;49.900;8.208;2024-03-06T00:43:25;2.70;;;2.50;;
18455;SDS011;9357;49.900;8.208;2024-03-06T00:44:59;5.07;;;2.80;;
18455;SDS011;9357;49.900;8.208;2024-03-06T00:46:31;4.68;;;3.25;;
18455;SDS011;9357;49.900;8.208;2024-03-06T00:48:04;6.38;;;3.00;;
18455;SDS011;9357;49.900;8.208;2024-03-06T00:49:36;3.88;;;2.85;;
18455;SDS011;9357;49.900;8.208;2024-03-06T00:51:10;3.47;;;3.00;;
18455;SDS011;9357;49.900;8.208;2024-03-06T00:52:42;3.97;;;3.05;;
18455;SDS011;9357;49.900;8.208;2024-03-06T00:54:15;3.55;;;3.17;;
18455;SDS011;9357;49.900;8.208;2024-03-06T00:55:48;3.25;;;2.95;;
18455;SDS011;9357;49.900;8.208;2024-03-06T00:57:20;4.13;;;2.97;;
18455;SDS011;9357;49.900;8.208;2024-03-06T00:58:52;4.75;;;3.08;;
18455;SDS011;9357;49.900;8.208;2024-03-06T01:00:26;3.67;;;3.08;;
18455;SDS011;9357;49.900;8.208;2024-03-06T01:01:59;3.30;;;2.97;;
18455;SDS011;9357;49.900;8.208;2024-03-06T01:03:31;3.20;;;2.90;;
18455;SDS011;9357;49.900;8.208;2024-03-06T01:05:03;3.33;;;2.97;;
18455;SDS011;9357;49.900;8.208;2024-03-06T01:06:38;3.95;;;2.95;;
18455;SDS011;9357;49.900;8.208;2024-03-06T01:08:09;3.33;;;3.00;;
18455;SDS011;9357;49.900;8.208;2024-03-06T01:09:42;4.07;;;3.25;;
18455;SDS011;9357;49.900;8.208;2024-03-06T01:11:14;4.00;;;3.00;;
18455;SDS011;9357;49.900;8.208;2024-03-06T01:12:47;4.82;;;3.33;;
18455;SDS011;9357;49.900;8.208;2024-03-06T01:14:19;4.60;;;3.65;;
18455;SDS011;9357;49.900;8.208;2024-03-06T01:15:53;4.68;;;3.92;;
18455;SDS011;9357;49.900;8.208;2024-03-06T01:17:25;5.65;;;4.15;;
18455;SDS011;9357;49.900;8.208;2024-03-06T01:18:58;4.70;;;3.30;;
18455;SDS011;9357;49.900;8.208;2024-03-06T01:20:29;5.07;;;3.78;;
18455;SDS011;9357;49.900;8.208;2024-03-06T01:22:02;5.10;;;4.03;;
18455;SDS011;9357;49.900;8.208;2024-03-06T01:23:34;3.90;;;3.50;;
18455;SDS011;9357;49.900;8.208;2024-03-06T01:25:07;4.80;;;3.53;;
18455;SDS011;9357;49.900;8.208;2024-03-06T01:26:39;4.75;;;3.42;;
18455;SDS011;9357;49.900;8.208;2024-03-06T01:28:12;3.60;;;3.30;;
18455;SDS011;9357;49.900;8.208;2024-03-06T01:29:44;4.43;;;3.28;;
18455;SDS011;9357;49.900;8.208;2024-03-06T01:31:18;4.65;;;3.58;;
18455;SDS011;9357;49.900;8.208;2024-03-06T01:32:50;4.30;;;3.70;;
18455;SDS011;9357;49.900;8.208;2024-03-06T01:34:23;6.30;;;3.50;;
18455;SDS011;9357;49.900;8.208;2024-03-06T01:35:56;3.97;;;3.50;;
18455;SDS011;9357;49.900;8.208;2024-03-06T01:37:28;5.72;;;3.78;;
18455;SDS011;9357;49.900;8.208;2024-03-06T01:39:00;4.80;;;3.30;;
18455;SDS011;9357;49.900;8.208;2024-03-06T01:40:33;4.38;;;3.40;;
18455;SDS011;9357;49.900;8.208;2024-03-06T01:42:05;4.03;;;3.63;;
18455;SDS011;9357;49.900;8.208;2024-03-06T01:43:38;4.38;;;3.60;;
18455;SDS011;9357;49.900;8.208;2024-03-06T01:45:10;3.72;;;3.40;;
18455;SDS011;9357;49.900;8.208;2024-03-06T01:46:45;5.55;;;3.85;;
18455;SDS011;9357;49.900;8.208;2024-03-06T01:48:19;4.38;;;3.60;;
18455;SDS011;9357;49.900;8.208;2024-03-06T01:49:53;4.70;;;3.78;;
18455;SDS011;9357;49.900;8.208;2024-03-06T01:51:25;5.00;;;3.58;;
18455;SDS011;9357;49.900;8.208;2024-03-06T01:52:58;6.20;;;4.00;;
18455;SDS011;9357;49.900;8.208;2024-03-06T01:54:30;4.00;;;3.60;;
18455;SDS011;9357;49.900;8.208;2024-03-06T01:56:04;4.85;;;3.60;;
18455;SDS011;9357;49.900;8.208;2024-03-06T01:57:37;5.03;;;3.58;;
18455;SDS011;9357;49.900;8.208;2024-03-06T01:59:12;5.43;;;3.60;;
18455;SDS011;9357;49.900;8.208;2024-03-06T02:00:59;5.35;;;3.83;;
18455;SDS011;9357;49.900;8.208;2024-03-06T02:02:34;5.20;;;3.83;;
18455;SDS011;9357;49.900;8.208;2024-03-06T02:04:07;3.50;;;3.20;;
18455;SDS011;9357;49.900;8.208;2024-03-06T02:05:40;4.85;;;3.45;;
18455;SDS011;9357;49.900;8.208;2024-03-06T02:07:14;4.25;;;3.70;;
18455;SDS011;9357;49.900;8.208;2024-03-06T02:08:48;6.95;;;3.95;;
18455;SDS011;9357;49.900;8.208;2024-03-06T02:10:21;5.68;;;3.70;;
18455;SDS011;9357;49.900;8.208;2024-03-06T02:11:52;4.05;;;3.63;;
18455;SDS011;9357;49.900;8.208;2024-03-06T02:13:25;5.93;;;3.80;;
18455;SDS011;9357;49.900;8.208;2024-03-06T02:14:57;4.60;;;3.70;;
18455;SDS011;9357;49.900;8.208;2024-03-06T02:16:30;4.25;;;3.67;;
18455;SDS011;9357;49.900;8.208;2024-03-06T02:18:05;4.63;;;3.88;;
18455;SDS011;9357;49.900;8.208;2024-03-06T02:19:40;5.75;;;4.40;;
18455;SDS011;9357;49.900;8.208;2024-03-06T02:21:15;4.93;;;3.67;;
18455;SDS011;9357;49.900;8.208;2024-03-06T02:22:48;4.90;;;3.88;;
18455;SDS011;9357;49.900;8.208;2024-03-06T02:24:20;7.45;;;4.13;;
18455;SDS011;9357;49.900;8.208;2024-03-06T02:25:52;7.47;;;4.50;;
18455;SDS011;9357;49.900;8.208;2024-03-06T02:27:24;5.72;;;4.50;;
18455;SDS011;9357;49.900;8.208;2024-03-06T02:28:57;5.75;;;3.88;;
18455;SDS011;9357;49.900;8.208;2024-03-06T02:30:29;4.53;;;3.80;;
18455;SDS011;9357;49.900;8.208;2024-03-06T02:32:08;5.03;;;4.10;;
18455;SDS011;9357;49.900;8.208;2024-03-06T02:33:40;5.88;;;3.97;;
18455;SDS011;9357;49.900;8.208;2024-03-06T02:35:13;4.90;;;4.03;;
18455;SDS011;9357;49.900;8.208;2024-03-06T02:36:46;7.53;;;3.88;;
18455;SDS011;9357;49.900;8.208;2024-03-06T02:38:19;5.47;;;4.25;;
18455;SDS011;9357;49.900;8.208;2024-03-06T02:39:51;5.13;;;3.60;;
18455;SDS011;9357;49.900;8.208;2024-03-06T02:41:31;4.63;;;3.40;;
18455;SDS011;9357;49.900;8.208;2024-03-06T02:43:15;4.68;;;3.95;;
18455;SDS011;9357;49.900;8.208;2024-03-06T02:44:52;4.60;;;3.78;;
18455;SDS011;9357;49.900;8.208;2024-03-06T02:46:24;6.22;;;4.65;;
18455;SDS011;9357;49.900;8.208;2024-03-06T02:47:57;5.32;;;3.90;;
18455;SDS011;9357;49.900;8.208;2024-03-06T02:49:29;4.25;;;3.78;;
18455;SDS011;9357;49.900;8.208;2024-03-06T02:51:02;6.18;;;4.13;;
18455;SDS011;9357;49.900;8.208;2024-03-06T02:52:35;4.45;;;3.97;;
18455;SDS011;9357;49.900;8.208;2024-03-06T02:54:08;5.43;;;4.00;;
18455;SDS011;9357;49.900;8.208;2024-03-06T02:55:39;9.48;;;4.68;;
18455;SDS011;9357;49.900;8.208;2024-03-06T02:57:12;4.95;;;3.50;;
18455;SDS011;9357;49.900;8.208;2024-03-06T02:58:44;4.97;;;3.78;;
18455;SDS011;9357;49.900;8.208;2024-03-06T03:00:17;4.70;;;3.65;;
18455;SDS011;9357;49.900;8.208;2024-03-06T03:01:49;6.57;;;4.10;;
18455;SDS011;9357;49.900;8.208;2024-03-06T03:03:22;5.20;;;4.15;;
18455;SDS011;9357;49.900;8.208;2024-03-06T03:04:56;6.03;;;4.00;;
18455;SDS011;9357;49.900;8.208;2024-03-06T03:06:33;5.28;;;4.30;;
18455;SDS011;9357;49.900;8.208;2024-03-06T03:08:26;5.95;;;4.22;;
18455;SDS011;9357;49.900;8.208;2024-03-06T03:10:05;7.85;;;4.38;;
18455;SDS011;9357;49.900;8.208;2024-03-06T03:11:42;6.38;;;3.83;;
18455;SDS011;9357;49.900;8.208;2024-03-06T03:13:38;5.53;;;3.88;;
18455;SDS011;9357;49.900;8.208;2024-03-06T03:15:21;4.72;;;3.50;;
18455;SDS011;9357;49.900;8.208;2024-03-06T03:16:57;4.28;;;3.40;;
18455;SDS011;9357;49.900;8.208;2024-03-06T03:18:44;6.38;;;3.40;;
18455;SDS011;9357;49.900;8.208;2024-03-06T03:20:34;5.93;;;4.10;;
18455;SDS011;9357;49.900;8.208;2024-03-06T03:22:13;4.68;;;3.30;;
18455;SDS011;9357;49.900;8.208;2024-03-06T03:23:54;4.70;;;3.38;;
18455;SDS011;9357;49.900;8.208;2024-03-06T03:25:39;6.07;;;3.60;;
18455;SDS011;9357;49.900;8.208;2024-03-06T03:27:19;4.90;;;3.65;;
18455;SDS011;9357;49.900;8.208;2024-03-06T03:29:14;7.03;;;4.03;;
18455;SDS011;9357;49.900;8.208;2024-03-06T03:30:56;4.35;;;3.90;;
18455;SDS011;9357;49.900;8.208;2024-03-06T03:32:48;4.25;;;3.28;;
18455;SDS011;9357;49.900;8.208;2024-03-06T03:34:24;5.63;;;3.60;;
18455;SDS011;9357;49.900;8.208;2024-03-06T03:36:24;4.68;;;3.30;;
18455;SDS011;9357;49.900;8.208;2024-03-06T03:38:06;4.10;;;3.55;;
18455;SDS011;9357;49.900;8.208;2024-03-06T03:39:45;5.70;;;3.25;;
18455;SDS011;9357;49.900;8.208;2024-03-06T03:41:20;4.78;;;3.42;;
18455;SDS011;9357;49.900;8.208;2024-03-06T03:43:03;6.65;;;4.63;;
18455;SDS011;9357;49.900;8.208;2024-03-06T03:44:40;5.15;;;4.20;;
18455;SDS011;9357;49.900;8.208;2024-03-06T03:46:17;6.43;;;3.75;;
18455;SDS011;9357;49.900;8.208;2024-03-06T03:47:53;4.75;;;3.90;;
18455;SDS011;9357;49.900;8.208;2024-03-06T03:49:35;4.90;;;3.60;;
18455;SDS011;9357;49.900;8.208;2024-03-06T03:51:41;6.47;;;3.72;;
18455;SDS011;9357;49.900;8.208;2024-03-06T03:53:21;5.07;;;3.78;;
18455;SDS011;9357;49.900;8.208;2024-03-06T03:56:49;4.20;;;3.80;;
18455;SDS011;9357;49.900;8.208;2024-03-06T03:58:32;4.45;;;4.05;;
18455;SDS011;9357;49.900;8.208;2024-03-06T04:00:13;5.15;;;3.67;;
18455;SDS011;9357;49.900;8.208;2024-03-06T04:01:46;5.00;;;3.92;;
18455;SDS011;9357;49.900;8.208;2024-03-06T04:03:19;5.18;;;4.20;;
18455;SDS011;9357;49.900;8.208;2024-03-06T04:04:51;4.00;;;3.60;;
18455;SDS011;9357;49.900;8.208;2024-03-06T04:06:24;6.40;;;3.80;;
18455;SDS011;9357;49.900;8.208;2024-03-06T04:07:57;4.93;;;3.95;;
18455;SDS011;9357;49.900;8.208;2024-03-06T04:09:29;5.35;;;3.90;;
18455;SDS011;9357;49.900;8.208;2024-03-06T04:11:04;5.30;;;3.72;;
18455;SDS011;9357;49.900;8.208;2024-03-06T04:12:36;5.68;;;3.53;;
18455;SDS011;9357;49.900;8.208;2024-03-06T04:14:09;5.38;;;3.80;;
18455;SDS011;9357;49.900;8.208;2024-03-06T04:15:42;4.72;;;3.95;;
18455;SDS011;9357;49.900;8.208;2024-03-06T04:17:14;6.20;;;4.20;;
18455;SDS011;9357;49.900;8.208;2024-03-06T04:18:46;6.45;;;4.00;;
18455;SDS011;9357;49.900;8.208;2024-03-06T04:20:19;4.00;;;3.53;;
18455;SDS011;9357;49.900;8.208;2024-03-06T04:21:51;5.00;;;3.70;;
18455;SDS011;9357;49.900;8.208;2024-03-06T04:23:24;7.38;;;3.72;;
18455;SDS011;9357;49.900;8.208;2024-03-06T04:24:55;6.63;;;4.18;;
18455;SDS011;9357;49.900;8.208;2024-03-06T04:26:31;4.90;;;3.88;;
18455;SDS011;9357;49.900;8.208;2024-03-06T04:28:04;5.63;;;4.18;;
18455;SDS011;9357;49.900;8.208;2024-03-06T04:29:38;5.20;;;3.95;;
18455;SDS011;9357;49.900;8.208;2024-03-06T04:31:11;6.30;;;4.22;;
18455;SDS011;9357;49.900;8.208;2024-03-06T04:32:43;6.88;;;4.50;;
18455;SDS011;9357;49.900;8.208;2024-03-06T04:34:16;6.25;;;4.22;;
18455;SDS011;9357;49.900;8.208;2024-03-06T04:35:48;5.20;;;3.95;;
18455;SDS011;9357;49.900;8.208;2024-03-06T04:37:21;8.25;;;4.82;;
18455;SDS011;9357;49.900;8.208;2024-03-06T04:38:53;10.27;;;5.55;;
18455;SDS011;9357;49.900;8.208;2024-03-06T04:40:25;6.45;;;4.45;;
18455;SDS011;9357;49.900;8.208;2024-03-06T04:42:01;5.93;;;4.35;;
18455;SDS011;9357;49.900;8.208;2024-03-06T04:43:33;11.55;;;6.90;;
18455;SDS011;9357;49.900;8.208;2024-03-06T04:45:09;5.20;;;4.28;;
18455;SDS011;9357;49.900;8.208;2024-03-06T04:46:42;7.97;;;3.83;;
18455;SDS011;9357;49.900;8.208;2024-03-06T04:48:15;5.20;;;4.03;;
18455;SDS011;9357;49.900;8.208;2024-03-06T04:49:47;4.68;;;3.80;;
18455;SDS011;9357;49.900;8.208;2024-03-06T04:51:21;4.88;;;4.30;;
18455;SDS011;9357;49.900;8.208;2024-03-06T04:52:53;5.18;;;4.43;;
18455;SDS011;9357;49.900;8.208;2024-03-06T04:54:27;6.25;;;4.32;;
18455;SDS011;9357;49.900;8.208;2024-03-06T04:55:58;5.47;;;3.90;;
18455;SDS011;9357;49.900;8.208;2024-03-06T04:57:32;6.28;;;4.80;;
18455;SDS011;9357;49.900;8.208;2024-03-06T04:59:05;5.25;;;4.32;;
18455;SDS011;9357;49.900;8.208;2024-03-06T05:00:38;5.47;;;4.45;;
18455;SDS011;9357;49.900;8.208;2024-03-06T05:02:11;5.45;;;4.32;;
18455;SDS011;9357;49.900;8.208;2024-03-06T05:03:43;5.68;;;4.30;;
18455;SDS011;9357;49.900;8.208;2024-03-06T05:05:33;5.82;;;4.25;;
18455;SDS011;9357;49.900;8.208;2024-03-06T05:07:22;6.88;;;4.28;;
18455;SDS011;9357;49.900;8.208;2024-03-06T05:09:13;9.60;;;4.53;;
18455;SDS011;9357;49.900;8.208;2024-03-06T05:11:03;5.70;;;4.22;;
18455;SDS011;9357;49.900;8.208;2024-03-06T05:12:56;6.60;;;4.07;;
18455;SDS011;9357;49.900;8.208;2024-03-06T05:14:46;7.05;;;4.65;;
18455;SDS011;9357;49.900;8.208;2024-03-06T05:16:35;5.32;;;4.35;;
18455;SDS011;9357;49.900;8.208;2024-03-06T05:18:26;5.53;;;3.80;;
18455;SDS011;9357;49.900;8.208;2024-03-06T05:20:15;4.63;;;3.90;;
18455;SDS011;9357;49.900;8.208;2024-03-06T05:22:06;4.40;;;4.00;;
18455;SDS011;9357;49.900;8.208;2024-03-06T05:23:56;6.25;;;4.13;;
18455;SDS011;9357;49.900;8.208;2024-03-06T05:25:46;5.53;;;4.13;;
18455;SDS011;9357;49.900;8.208;2024-03-06T05:27:35;4.32;;;3.92;;
18455;SDS011;9357;49.900;8.208;2024-03-06T05:29:27;4.53;;;3.75;;
18455;SDS011;9357;49.900;8.208;2024-03-06T05:31:18;5.40;;;4.30;;
18455;SDS011;9357;49.900;8.208;2024-03-06T05:33:08;4.63;;;4.10;;
18455;SDS011;9357;49.900;8.208;2024-03-06T05:34:59;6.18;;;4.13;;
18455;SDS011;9357;49.900;8.208;2024-03-06T05:36:50;5.30;;;4.15;;
18455;SDS011;9357;49.900;8.208;2024-03-06T05:38:39;6.22;;;4.30;;
18455;SDS011;9357;49.900;8.208;2024-03-06T05:40:29;5.25;;;4.07;;
18455;SDS011;9357;49.900;8.208;2024-03-06T05:42:24;5.75;;;4.60;;
18455;SDS011;9357;49.900;8.208;2024-03-06T05:44:15;4.55;;;4.10;;
18455;SDS011;9357;49.900;8.208;2024-03-06T05:46:05;6.13;;;4.32;;
18455;SDS011;9357;49.900;8.208;2024-03-06T05:47:56;5.25;;;4.05;;
18455;SDS011;9357;49.900;8.208;2024-03-06T05:49:47;5.22;;;4.10;;
18455;SDS011;9357;49.900;8.208;2024-03-06T05:51:37;5.20;;;4.40;;
18455;SDS011;9357;49.900;8.208;2024-03-06T05:53:27;5.80;;;4.38;;
18455;SDS011;9357;49.900;8.208;2024-03-06T05:55:16;4.82;;;4.30;;
18455;SDS011;9357;49.900;8.208;2024-03-06T05:57:06;6.53;;;4.32;;
18455;SDS011;9357;49.900;8.208;2024-03-06T05:58:57;5.00;;;4.50;;
18455;SDS011;9357;49.900;8.208;2024-03-06T06:00:29;5.15;;;4.43;;
18455;SDS011;9357;49.900;8.208;2024-03-06T06:02:03;6.20;;;4.70;;
18455;SDS011;9357;49.900;8.208;2024-03-06T06:03:35;7.60;;;5.20;;
18455;SDS011;9357;49.900;8.208;2024-03-06T06:05:09;7.28;;;5.35;;
18455;SDS011;9357;49.900;8.208;2024-03-06T06:06:57;6.10;;;4.60;;
18455;SDS011;9357;49.900;8.208;2024-03-06T06:08:30;6.35;;;5.22;;
18455;SDS011;9357;49.900;8.208;2024-03-06T06:10:04;8.52;;;5.03;;
18455;SDS011;9357;49.900;8.208;2024-03-06T06:11:40;8.70;;;5.22;;
18455;SDS011;9357;49.900;8.208;2024-03-06T06:13:12;8.80;;;5.07;;
18455;SDS011;9357;49.900;8.208;2024-03-06T06:14:45;6.07;;;4.95;;
18455;SDS011;9357;49.900;8.208;2024-03-06T06:16:17;6.97;;;5.30;;
18455;SDS011;9357;49.900;8.208;2024-03-06T06:17:51;6.55;;;5.20;;
18455;SDS011;9357;49.900;8.208;2024-03-06T06:19:23;8.73;;;5.30;;
18455;SDS011;9357;49.900;8.208;2024-03-06T06:20:56;11.40;;;5.35;;
18455;SDS011;9357;49.900;8.208;2024-03-06T06:22:28;6.68;;;5.22;;
18455;SDS011;9357;49.900;8.208;2024-03-06T06:24:01;6.28;;;4.78;;
18455;SDS011;9357;49.900;8.208;2024-03-06T06:25:34;7.00;;;4.82;;
18455;SDS011;9357;49.900;8.208;2024-03-06T06:27:07;6.65;;;4.72;;
18455;SDS011;9357;49.900;8.208;2024-03-06T06:28:40;8.55;;;4.95;;
18455;SDS011;9357;49.900;8.208;2024-03-06T06:30:13;5.25;;;4.60;;
18455;SDS011;9357;49.900;8.208;2024-03-06T06:31:45;7.50;;;5.47;;
18455;SDS011;9357;49.900;8.208;2024-03-06T06:33:19;5.72;;;4.53;;
18455;SDS011;9357;49.900;8.208;2024-03-06T06:34:52;5.32;;;4.82;;
18455;SDS011;9357;49.900;8.208;2024-03-06T06:36:25;8.40;;;5.40;;
18455;SDS011;9357;49.900;8.208;2024-03-06T06:37:58;5.32;;;4.82;;
18455;SDS011;9357;49.900;8.208;2024-03-06T06:39:31;6.40;;;5.10;;
18455;SDS011;9357;49.900;8.208;2024-03-06T06:41:07;5.93;;;4.85;;
18455;SDS011;9357;49.900;8.208;2024-03-06T06:42:43;9.32;;;5.40;;
18455;SDS011;9357;49.900;8.208;2024-03-06T06:44:16;6.75;;;5.25;;
18455;SDS011;9357;49.900;8.208;2024-03-06T06:45:49;6.38;;;4.88;;
18455;SDS011;9357;49.900;8.208;2024-03-06T06:47:24;6.05;;;4.72;;
18455;SDS011;9357;49.900;8.208;2024-03-06T06:48:59;6.30;;;4.78;;
18455;SDS011;9357;49.900;8.208;2024-03-06T06:50:32;7.18;;;4.97;;
18455;SDS011;9357;49.900;8.208;2024-03-06T06:52:05;8.60;;;5.05;;
18455;SDS011;9357;49.900;8.208;2024-03-06T06:53:39;6.15;;;4.82;;
18455;SDS011;9357;49.900;8.208;2024-03-06T06:55:13;6.93;;;4.75;;
18455;SDS011;9357;49.900;8.208;2024-03-06T06:56:45;8.68;;;5.00;;
18455;SDS011;9357;49.900;8.208;2024-03-06T06:58:18;6.60;;;4.85;;
18455;SDS011;9357;49.900;8.208;2024-03-06T06:59:51;6.43;;;4.88;;
18455;SDS011;9357;49.900;8.208;2024-03-06T07:01:24;6.65;;;4.60;;
18455;SDS011;9357;49.900;8.208;2024-03-06T07:02:58;7.80;;;4.72;;
18455;SDS011;9357;49.900;8.208;2024-03-06T07:04:32;5.32;;;4.60;;
18455;SDS011;9357;49.900;8.208;2024-03-06T07:06:05;6.50;;;4.38;;
18455;SDS011;9357;49.900;8.208;2024-03-06T07:07:38;6.20;;;4.53;;
18455;SDS011;9357;49.900;8.208;2024-03-06T07:09:11;7.82;;;4.60;;
18455;SDS011;9357;49.900;8.208;2024-03-06T07:10:44;7.10;;;4.85;;
18455;SDS011;9357;49.900;8.208;2024-03-06T07:12:17;5.45;;;4.72;;
18455;SDS011;9357;49.900;8.208;2024-03-06T07:13:49;9.38;;;4.15;;
18455;SDS011;9357;49.900;8.208;2024-03-06T07:15:22;4.93;;;3.78;;
18455;SDS011;9357;49.900;8.208;2024-03-06T07:16:54;6.13;;;3.90;;
18455;SDS011;9357;49.900;8.208;2024-03-06T07:18:27;5.03;;;3.20;;
18455;SDS011;9357;49.900;8.208;2024-03-06T07:20:01;4.00;;;3.20;;
18455;SDS011;9357;49.900;8.208;2024-03-06T07:21:36;3.65;;;3.33;;
18455;SDS011;9357;49.900;8.208;2024-03-06T07:23:09;5.30;;;3.15;;
18455;SDS011;9357;49.900;8.208;2024-03-06T07:24:41;7.75;;;3.50;;
18455;SDS011;9357;49.900;8.208;2024-03-06T07:26:14;4.53;;;3.20;;
18455;SDS011;9357;49.900;8.208;2024-03-06T07:27:47;3.45;;;3.00;;
18455;SDS011;9357;49.900;8.208;2024-03-06T07:29:18;4.22;;;3.13;;
18455;SDS011;9357;49.900;8.208;2024-03-06T07:30:51;3.25;;;2.47;;
18455;SDS011;9357;49.900;8.208;2024-03-06T07:32:23;4.72;;;2.53;;
18455;SDS011;9357;49.900;8.208;2024-03-06T07:33:56;4.25;;;2.70;;
18455;SDS011;9357;49.900;8.208;2024-03-06T07:35:30;2.88;;;2.58;;
18455;SDS011;9357;49.900;8.208;2024-03-06T07:37:03;5.55;;;3.65;;
18455;SDS011;9357;49.900;8.208;2024-03-06T07:38:36;3.60;;;2.63;;
18455;SDS011;9357;49.900;8.208;2024-03-06T07:40:09;3.38;;;3.05;;
18455;SDS011;9357;49.900;8.208;2024-03-06T07:41:42;3.45;;;3.15;;
18455;SDS011;9357;49.900;8.208;2024-03-06T07:43:15;4.78;;;3.10;;
18455;SDS011;9357;49.900;8.208;2024-03-06T07:44:47;4.85;;;3.40;;
18455;SDS011;9357;49.900;8.208;2024-03-06T07:46:19;3.95;;;2.90;;
18455;SDS011;9357;49.900;8.208;2024-03-06T07:47:51;3.45;;;3.15;;
18455;SDS011;9357;49.900;8.208;2024-03-06T07:49:24;4.47;;;3.42;;
18455;SDS011;9357;49.900;8.208;2024-03-06T07:50:57;4.60;;;3.50;;
18455;SDS011;9357;49.900;8.208;2024-03-06T07:52:30;4.35;;;3.00;;
18455;SDS011;9357;49.900;8.208;2024-03-06T07:54:03;3.10;;;2.80;;
18455;SDS011;9357;49.900;8.208;2024-03-06T07:55:36;4.38;;;3.17;;
18455;SDS011;9357;49.900;8.208;2024-03-06T07:57:10;4.63;;;3.05;;
18455;SDS011;9357;49.900;8.208;2024-03-06T07:58:43;3.47;;;2.97;;
18455;SDS011;9357;49.900;8.208;2024-03-06T08:00:15;4.72;;;3.50;;
18455;SDS011;9357;49.900;8.208;2024-03-06T08:01:50;4.90;;;3.05;;
18455;SDS011;9357;49.900;8.208;2024-03-06T08:03:23;4.75;;;3.47;;
18455;SDS011;9357;49.900;8.208;2024-03-06T08:04:56;4.93;;;2.95;;
18455;SDS011;9357;49.900;8.208;2024-03-06T08:06:29;4.13;;;3.38;;
18455;SDS011;9357;49.900;8.208;2024-03-06T08:08:03;3.95;;;3.08;;
18455;SDS011;9357;49.900;8.208;2024-03-06T08:09:36;3.22;;;2.95;;
18455;SDS011;9357;49.900;8.208;2024-03-06T08:11:09;4.83;;;2.70;;
18455;SDS011;9357;49.900;8.208;2024-03-06T08:12:42;5.07;;;2.93;;
18455;SDS011;9357;49.900;8.208;2024-03-06T08:14:16;3.22;;;2.95;;
18455;SDS011;9357;49.900;8.208;2024-03-06T08:15:49;3.42;;;3.03;;
18455;SDS011;9357;49.900;8.208;2024-03-06T08:17:22;3.72;;;3.10;;
18455;SDS011;9357;49.900;8.208;2024-03-06T08:18:54;3.05;;;2.75;;
18455;SDS011;9357;49.900;8.208;2024-03-06T08:20:27;3.75;;;2.88;;
18455;SDS011;9357;49.900;8.208;2024-03-06T08:22:01;3.10;;;2.80;;
18455;SDS011;9357;49.900;8.208;2024-03-06T08:23:37;3.23;;;2.40;;
18455;SDS011;9357;49.900;8.208;2024-03-06T08:25:09;2.60;;;2.40;;
18455;SDS011;9357;49.900;8.208;2024-03-06T08:26:43;3.00;;;2.70;;
18455;SDS011;9357;49.900;8.208;2024-03-06T08:28:15;3.00;;;2.40;;
18455;SDS011;9357;49.900;8.208;2024-03-06T08:29:47;2.73;;;2.30;;
18455;SDS011;9357;49.900;8.208;2024-03-06T08:31:24;3.10;;;2.40;;
18455;SDS011;9357;49.900;8.208;2024-03-06T08:32:56;2.93;;;2.50;;
18455;SDS011;9357;49.900;8.208;2024-03-06T08:34:29;2.77;;;2.33;;
18455;SDS011;9357;49.900;8.208;2024-03-06T08:36:03;2.53;;;2.33;;
18455;SDS011;9357;49.900;8.208;2024-03-06T08:37:38;2.50;;;2.20;;
18455;SDS011;9357;49.900;8.208;2024-03-06T08:39:10;3.40;;;2.50;;
18455;SDS011;9357;49.900;8.208;2024-03-06T08:40:46;2.93;;;2.50;;
18455;SDS011;9357;49.900;8.208;2024-03-06T08:42:18;2.83;;;2.40;;
18455;SDS011;9357;49.900;8.208;2024-03-06T08:43:51;2.50;;;2.30;;
18455;SDS011;9357;49.900;8.208;2024-03-06T08:45:23;2.77;;;2.20;;
18455;SDS011;9357;49.900;8.208;2024-03-06T08:46:56;2.63;;;2.30;;
18455;SDS011;9357;49.900;8.208;2024-03-06T08:48:28;4.07;;;2.20;;
18455;SDS011;9357;49.900;8.208;2024-03-06T08:50:00;2.57;;;2.30;;
18455;SDS011;9357;49.900;8.208;2024-03-06T08:51:33;2.67;;;2.43;;
18455;SDS011;9357;49.900;8.208;2024-03-06T08:53:07;3.17;;;2.30;;
18455;SDS011;9357;49.900;8.208;2024-03-06T08:54:40;2.33;;;1.90;;
18455;SDS011;9357;49.900;8.208;2024-03-06T08:56:13;2.40;;;2.20;;
18455;SDS011;9357;49.900;8.208;2024-03-06T08:57:46;2.90;;;2.23;;
18455;SDS011;9357;49.900;8.208;2024-03-06T08:59:19;2.90;;;2.30;;
18455;SDS011;9357;49.900;8.208;2024-03-06T09:00:50;3.70;;;2.87;;
18455;SDS011;9357;49.900;8.208;2024-03-06T09:02:25;3.37;;;2.67;;
18455;SDS011;9357;49.900;8.208;2024-03-06T09:03:57;2.70;;;2.50;;
18455;SDS011;9357;49.900;8.208;2024-03-06T09:05:29;3.43;;;2.20;;
18455;SDS011;9357;49.900;8.208;2024-03-06T09:07:01;2.90;;;2.10;;
18455;SDS011;9357;49.900;8.208;2024-03-06T09:08:35;2.83;;;2.50;;
18455;SDS011;9357;49.900;8.208;2024-03-06T09:10:07;2.67;;;2.40;;
18455;SDS011;9357;49.900;8.208;2024-03-06T09:11:41;2.60;;;2.37;;
18455;SDS011;9357;49.900;8.208;2024-03-06T09:13:13;4.13;;;2.67;;
18455;SDS011;9357;49.900;8.208;2024-03-06T09:14:46;2.77;;;2.33;;
18455;SDS011;9357;49.900;8.208;2024-03-06T09:16:18;2.70;;;2.40;;
18455;SDS011;9357;49.900;8.208;2024-03-06T09:17:50;3.10;;;2.70;;
18455;SDS011;9357;49.900;8.208;2024-03-06T09:19:22;3.43;;;2.50;;
18455;SDS011;9357;49.900;8.208;2024-03-06T09:20:55;3.00;;;2.80;;
18455;SDS011;9357;49.900;8.208;2024-03-06T09:22:27;3.23;;;2.70;;
18455;SDS011;9357;49.900;8.208;2024-03-06T09:24:01;3.30;;;2.87;;
18455;SDS011;9357;49.900;8.208;2024-03-06T09:25:34;3.43;;;3.10;;
18455;SDS011;9357;49.900;8.208;2024-03-06T09:27:06;4.10;;;2.57;;
18455;SDS011;9357;49.900;8.208;2024-03-06T09:28:39;3.10;;;2.70;;
18455;SDS011;9357;49.900;8.208;2024-03-06T09:30:11;4.50;;;3.33;;
18455;SDS011;9357;49.900;8.208;2024-03-06T09:31:46;4.60;;;3.80;;
18455;SDS011;9357;49.900;8.208;2024-03-06T09:33:19;5.20;;;3.87;;
18455;SDS011;9357;49.900;8.208;2024-03-06T09:34:52;6.53;;;4.30;;
18455;SDS011;9357;49.900;8.208;2024-03-06T09:36:24;4.23;;;3.83;;
18455;SDS011;9357;49.900;8.208;2024-03-06T09:37:57;6.50;;;4.13;;
18455;SDS011;9357;49.900;8.208;2024-03-06T09:39:30;5.23;;;4.43;;
18455;SDS011;9357;49.900;8.208;2024-03-06T09:41:04;4.70;;;4.30;;
18455;SDS011;9357;49.900;8.208;2024-03-06T09:42:38;7.00;;;4.43;;
18455;SDS011;9357;49.900;8.208;2024-03-06T09:44:10;5.93;;;4.90;;